KFTY/FTY METAR and TAF weather

Enter ICAO airport designator
Station Type Date Time Source
KFTY METAR 2022/01/26 13:53 UTC NOAA

KFTY 261353Z 33006KT 10SM CLR 00/M06 A3027 RMK AO2 SLP254 T00001056


Station Type Date Time Source
KFTY Decoded METAR 2022/01/26 13:53 UTC NOAA

ATLANTA FULTON COUNTY AIRPORT , GA, United States (KFTY) 33-47N 84-31W 263M
Jan 26, 2022 - 08:53 AM EST / 2022.01.26 1353 UTC
Wind: from the NNW (330 degrees) at 7 MPH (6 KT):0
Visibility: 10 mile(s):0
Sky conditions: clear
Temperature: 32.0 F (0.0 C)
Windchill: 24 F (-4 C):1
Dew Point: 21.9 F (-5.6 C)
Relative Humidity: 65%
Pressure (altimeter): 30.27 in. Hg (1025 hPa)
ob: KFTY 261353Z 33006KT 10SM CLR 00/M06 A3027 RMK AO2 SLP254 T00001056
cycle: 14

Station Type Date Time Source
KFTY TAF 2022/01/26 12:33 UTC NOAA

TAF KFTY 261130Z 2612/2712 33007KT P6SM SKC
FM261500 35008KT P6SM FEW250
FM262300 33005KT P6SM SKC
FM270400 VRB03KT P6SM SKC

Example: see airport list